Terminal Aerodrome Forecast
Issued by NWS

Home | Current Version | Previous Version | Text Only | Print | Product List | Glossary On
Versions: 1 2 3 4 5 6 7 8 9 10 11 12 13 14 15 16 17 18 19 20 21 22 23 24 25 26 27 28 29 30 31 32 33 34 35 36 37 38 39 40 41 42 43 44 45 46 47 48 49 50
000
FTUS43 KGRB 172300
TAFRHI
TAF
KRHI 172335Z 1800/1824 11005KT P6SM BKN026
     FM181000 13004KT 5SM -SHRA BR BKN024
      TEMPO 1810/1814 4SM -TSRA BR OVC015CB
     FM181400 16006KT P6SM VCSH BKN018
     FM181900 16007KT 4SM -SHRA BKN015=

USA.gov is the U.S. government's official web portal to all federal, state and local government web resources and services.